createdAt,value
2018-03-29T00:00:24.754Z,5.65
2018-03-29T00:02:52.185Z,4.97
2018-03-29T00:05:19.572Z,5.00
2018-03-29T00:07:46.968Z,4.80
2018-03-29T00:10:14.414Z,4.50
2018-03-29T00:12:41.775Z,4.40
2018-03-29T00:15:09.167Z,4.90
2018-03-29T00:17:36.918Z,5.85
2018-03-29T00:20:04.301Z,4.77
2018-03-29T00:22:31.691Z,4.67
2018-03-29T00:24:59.082Z,4.40
2018-03-29T00:27:26.479Z,3.87
2018-03-29T00:29:53.859Z,3.75
2018-03-29T00:32:21.251Z,3.80
2018-03-29T00:34:48.631Z,3.87
2018-03-29T00:37:16.007Z,4.30
2018-03-29T00:39:43.490Z,4.27
2018-03-29T00:42:10.902Z,4.13
2018-03-29T00:44:38.298Z,3.87
2018-03-29T00:47:07.018Z,3.80
2018-03-29T00:49:34.412Z,3.67
2018-03-29T00:52:01.840Z,3.23
2018-03-29T00:54:29.256Z,3.63
2018-03-29T00:56:56.634Z,3.40
2018-03-29T00:59:24.073Z,3.70
2018-03-29T01:01:51.489Z,3.43
2018-03-29T01:04:18.917Z,3.20
2018-03-29T01:06:46.307Z,3.10
2018-03-29T01:09:14.088Z,3.53
2018-03-29T01:11:41.484Z,3.57
2018-03-29T01:14:08.873Z,4.00
2018-03-29T01:16:37.245Z,4.60
2018-03-29T01:19:04.633Z,4.30
2018-03-29T01:21:32.036Z,4.53
2018-03-29T01:23:59.417Z,4.30
2018-03-29T01:26:29.361Z,4.70
2018-03-29T01:28:56.752Z,4.40
2018-03-29T01:31:24.150Z,4.90
2018-03-29T01:33:51.525Z,4.60
2018-03-29T01:36:18.936Z,3.97
2018-03-29T01:38:46.318Z,4.57
2018-03-29T01:41:13.713Z,4.68
2018-03-29T01:43:41.098Z,5.00
2018-03-29T01:46:08.491Z,4.20
2018-03-29T01:48:35.888Z,4.30
2018-03-29T01:51:03.273Z,4.90
2018-03-29T01:53:30.878Z,6.07
2018-03-29T01:55:58.266Z,5.50
2018-03-29T01:58:25.669Z,6.10
2018-03-29T02:00:53.069Z,5.60
2018-03-29T02:03:20.460Z,5.45
2018-03-29T02:05:47.844Z,5.97
2018-03-29T02:08:15.234Z,6.18
2018-03-29T02:10:42.628Z,5.45
2018-03-29T02:13:10.017Z,5.47
2018-03-29T02:15:37.668Z,5.15
2018-03-29T02:18:05.062Z,4.43
2018-03-29T02:20:32.466Z,4.45
2018-03-29T02:22:59.839Z,4.40
2018-03-29T02:25:27.249Z,3.87
2018-03-29T02:27:54.634Z,4.33
2018-03-29T02:30:23.071Z,4.35
2018-03-29T02:32:50.572Z,4.25
2018-03-29T02:37:51.713Z,4.33
2018-03-29T02:40:19.220Z,4.83
2018-03-29T02:42:46.613Z,4.37
2018-03-29T02:45:14.005Z,3.90
2018-03-29T02:47:41.384Z,4.37
2018-03-29T02:50:08.933Z,3.80
2018-03-29T02:52:36.368Z,3.60
2018-03-29T02:55:03.762Z,4.30
2018-03-29T02:57:31.145Z,4.40
2018-03-29T02:59:58.534Z,4.50
2018-03-29T03:02:25.923Z,4.90
2018-03-29T03:04:53.331Z,8.93
2018-03-29T03:07:20.717Z,7.60
2018-03-29T03:09:48.100Z,4.13
2018-03-29T03:12:15.480Z,4.20
2018-03-29T03:14:42.860Z,4.60
2018-03-29T03:17:10.264Z,4.50
2018-03-29T03:19:37.817Z,4.05
2018-03-29T03:22:05.296Z,4.47
2018-03-29T03:24:32.709Z,4.80
2018-03-29T03:27:00.118Z,4.43
2018-03-29T03:29:27.490Z,4.30
2018-03-29T03:31:54.872Z,4.87
2018-03-29T03:34:22.244Z,4.50
2018-03-29T03:36:49.690Z,5.17
2018-03-29T03:39:17.128Z,5.43
2018-03-29T03:41:44.533Z,5.07
2018-03-29T03:44:11.896Z,5.12
2018-03-29T03:46:39.300Z,5.50
2018-03-29T03:49:06.699Z,5.50
2018-03-29T03:51:34.087Z,5.50
2018-03-29T03:54:01.471Z,5.80
2018-03-29T03:56:28.866Z,5.60
2018-03-29T03:58:56.256Z,5.83
2018-03-29T04:01:23.645Z,5.70
2018-03-29T04:03:51.116Z,6.27
2018-03-29T04:06:18.513Z,6.50
2018-03-29T04:08:45.921Z,6.28
2018-03-29T04:11:13.319Z,6.73
2018-03-29T04:13:40.705Z,6.40
2018-03-29T04:16:08.137Z,5.90
2018-03-29T04:18:35.505Z,6.23
2018-03-29T04:21:02.928Z,6.40
2018-03-29T04:23:30.320Z,6.47
2018-03-29T04:25:57.718Z,6.20
2018-03-29T04:28:25.092Z,6.85
2018-03-29T04:30:52.585Z,6.62
2018-03-29T04:33:19.976Z,7.43
2018-03-29T04:35:47.381Z,7.00
2018-03-29T04:38:14.764Z,7.50
2018-03-29T04:40:42.135Z,6.50
2018-03-29T04:43:09.536Z,7.43
2018-03-29T04:45:36.920Z,8.20
2018-03-29T04:48:04.314Z,8.00
2018-03-29T04:50:31.710Z,7.33
2018-03-29T04:52:59.145Z,7.75
2018-03-29T04:55:26.596Z,8.27
2018-03-29T04:57:53.933Z,8.10
2018-03-29T05:00:21.323Z,8.13
2018-03-29T05:02:48.713Z,8.80
2018-03-29T05:05:16.129Z,9.15
2018-03-29T05:07:43.509Z,8.10
2018-03-29T05:10:10.905Z,8.47
2018-03-29T05:12:38.500Z,8.50
2018-03-29T05:15:05.902Z,7.90
2018-03-29T05:17:33.296Z,8.23
2018-03-29T05:20:00.675Z,8.20
2018-03-29T05:22:28.094Z,8.13
2018-03-29T05:24:55.468Z,8.73
2018-03-29T05:27:25.804Z,8.00
2018-03-29T05:29:53.182Z,9.10
2018-03-29T05:32:20.569Z,8.65
2018-03-29T05:34:47.956Z,8.23
2018-03-29T05:37:15.350Z,8.30
2018-03-29T05:39:42.746Z,8.82
2018-03-29T05:42:10.165Z,9.20
2018-03-29T05:44:38.415Z,8.57
2018-03-29T05:47:05.816Z,9.30
2018-03-29T05:49:35.142Z,9.40
2018-03-29T05:52:02.685Z,9.70
2018-03-29T05:54:30.099Z,8.23
2018-03-29T05:56:57.477Z,8.80
2018-03-29T05:59:24.870Z,8.47
2018-03-29T06:01:52.298Z,9.57
2018-03-29T06:04:19.694Z,8.90
2018-03-29T06:06:47.073Z,8.45
2018-03-29T06:09:14.467Z,9.35
2018-03-29T06:11:41.921Z,9.10
2018-03-29T06:14:09.313Z,8.93
2018-03-29T06:16:42.198Z,8.90
2018-03-29T06:19:09.597Z,9.60
2018-03-29T06:21:37.005Z,8.50
2018-03-29T06:24:04.412Z,8.80
2018-03-29T06:26:31.811Z,10.30
2018-03-29T06:29:00.739Z,10.53
2018-03-29T06:31:28.167Z,10.30
2018-03-29T06:33:55.585Z,10.02
2018-03-29T06:36:23.003Z,10.90
2018-03-29T06:38:50.396Z,9.20
2018-03-29T06:41:17.789Z,10.30
2018-03-29T06:43:45.182Z,9.87
2018-03-29T06:46:12.747Z,10.27
2018-03-29T06:48:40.181Z,8.87
2018-03-29T06:51:07.558Z,8.40
2018-03-29T06:53:34.955Z,9.53
2018-03-29T06:56:02.351Z,10.40
2018-03-29T06:58:29.733Z,9.50
2018-03-29T07:00:57.192Z,9.03
2018-03-29T07:03:24.661Z,10.40
2018-03-29T07:05:52.221Z,9.15
2018-03-29T07:08:19.633Z,10.50
2018-03-29T07:10:47.038Z,9.17
2018-03-29T07:13:14.452Z,10.23
2018-03-29T07:15:41.902Z,10.30
2018-03-29T07:18:10.106Z,9.82
2018-03-29T07:20:37.510Z,10.93
2018-03-29T07:23:04.911Z,11.27
2018-03-29T07:25:32.370Z,11.43
2018-03-29T07:27:59.790Z,10.52
2018-03-29T07:30:27.229Z,9.93
2018-03-29T07:32:55.530Z,10.50
2018-03-29T07:35:22.999Z,10.37
2018-03-29T07:37:50.386Z,10.50
2018-03-29T07:40:17.810Z,9.83
2018-03-29T07:42:45.205Z,10.80
2018-03-29T07:45:13.012Z,11.50
2018-03-29T07:47:40.405Z,10.90
2018-03-29T07:50:07.781Z,10.67
2018-03-29T07:52:35.229Z,11.43
2018-03-29T07:55:02.656Z,11.93
2018-03-29T07:57:30.041Z,10.50
2018-03-29T07:59:57.472Z,10.37
2018-03-29T08:02:24.857Z,11.43
2018-03-29T08:04:52.255Z,11.33
2018-03-29T08:07:19.756Z,12.30
2018-03-29T08:09:47.173Z,11.30
2018-03-29T08:12:14.590Z,11.87
2018-03-29T08:14:41.980Z,11.30
2018-03-29T08:17:09.393Z,12.50
2018-03-29T08:19:36.824Z,13.70
2018-03-29T08:22:04.216Z,12.53
2018-03-29T08:24:31.624Z,14.73
2018-03-29T08:26:59.017Z,12.40
2018-03-29T08:29:26.427Z,13.20
2018-03-29T08:31:53.804Z,13.80
2018-03-29T08:34:21.978Z,13.98
2018-03-29T08:36:49.378Z,11.63
2018-03-29T08:39:16.795Z,12.07
2018-03-29T08:41:44.276Z,13.45
2018-03-29T08:44:12.708Z,14.20
2018-03-29T08:46:40.179Z,13.77
2018-03-29T08:49:07.599Z,14.27
2018-03-29T08:51:35.297Z,13.97
2018-03-29T08:54:02.687Z,14.47
2018-03-29T08:56:30.106Z,14.90
2018-03-29T08:58:57.542Z,15.13
2018-03-29T09:01:25.073Z,15.57
2018-03-29T09:03:52.466Z,16.30
2018-03-29T09:06:20.635Z,14.30
2018-03-29T09:08:48.058Z,15.30
2018-03-29T09:11:15.440Z,15.10
2018-03-29T09:13:42.824Z,16.33
2018-03-29T09:16:10.234Z,14.70
2018-03-29T09:18:38.115Z,15.30
2018-03-29T09:21:05.573Z,16.10
2018-03-29T09:23:32.906Z,12.77
2018-03-29T09:26:00.309Z,13.37
2018-03-29T09:28:27.724Z,13.00
2018-03-29T09:30:55.140Z,11.90
2018-03-29T09:33:22.530Z,11.85
2018-03-29T09:35:54.948Z,10.40
2018-03-29T09:38:22.354Z,9.70
2018-03-29T09:40:49.759Z,8.27
2018-03-29T09:43:17.165Z,8.87
2018-03-29T09:45:44.594Z,10.00
2018-03-29T09:48:12.059Z,9.47
2018-03-29T09:50:39.587Z,8.77
2018-03-29T09:53:06.997Z,8.37
2018-03-29T09:55:34.461Z,8.73
2018-03-29T09:58:01.799Z,7.83
2018-03-29T10:00:35.142Z,8.03
2018-03-29T10:03:08.101Z,8.35
2018-03-29T10:05:38.440Z,7.90
2018-03-29T10:08:05.825Z,8.73
2018-03-29T10:10:33.217Z,8.00
2018-03-29T10:13:00.701Z,6.90
2018-03-29T10:15:28.113Z,7.43
2018-03-29T10:17:55.511Z,6.18
2018-03-29T10:20:22.896Z,6.22
2018-03-29T10:22:50.313Z,7.10
2018-03-29T10:25:17.703Z,5.20
2018-03-29T10:27:45.114Z,5.15
2018-03-29T10:30:13.573Z,5.93
2018-03-29T10:32:40.995Z,5.40
2018-03-29T10:35:08.377Z,5.93
2018-03-29T10:37:35.777Z,5.80
2018-03-29T10:40:03.413Z,6.80
2018-03-29T10:42:31.026Z,5.50
2018-03-29T10:44:58.453Z,6.03
2018-03-29T10:47:25.857Z,5.97
2018-03-29T10:49:53.314Z,5.40
2018-03-29T10:52:20.781Z,6.20
2018-03-29T10:54:48.161Z,5.78
2018-03-29T10:57:15.557Z,5.20
2018-03-29T10:59:42.966Z,5.60
2018-03-29T11:02:10.573Z,6.03
2018-03-29T11:04:37.970Z,5.37
2018-03-29T11:07:05.366Z,5.10
2018-03-29T11:09:32.761Z,6.10
2018-03-29T11:12:00.172Z,5.83
2018-03-29T11:14:27.584Z,4.73
2018-03-29T11:16:54.981Z,5.47
2018-03-29T11:19:22.370Z,5.40
2018-03-29T11:21:49.794Z,5.47
2018-03-29T11:24:17.178Z,5.93
2018-03-29T11:26:44.634Z,5.60
2018-03-29T11:29:12.033Z,5.23
2018-03-29T11:31:40.085Z,6.17
2018-03-29T11:34:07.494Z,5.30
2018-03-29T11:36:34.889Z,6.20
2018-03-29T11:39:02.297Z,6.47
2018-03-29T11:41:29.681Z,6.10
2018-03-29T11:43:57.066Z,6.40
2018-03-29T11:46:24.526Z,6.87
2018-03-29T11:48:53.204Z,5.78
2018-03-29T11:51:20.619Z,5.73
2018-03-29T11:53:48.111Z,5.97
2018-03-29T11:56:15.496Z,5.75
2018-03-29T11:58:42.912Z,5.23
2018-03-29T12:01:10.390Z,4.70
2018-03-29T12:03:37.802Z,5.00
2018-03-29T12:06:05.334Z,5.30
2018-03-29T12:08:32.857Z,5.27
2018-03-29T12:11:00.280Z,4.63
2018-03-29T12:13:27.777Z,4.13
2018-03-29T12:15:55.844Z,4.90
2018-03-29T12:18:23.383Z,3.50
2018-03-29T12:20:50.755Z,3.10
2018-03-29T12:23:18.173Z,4.00
2018-03-29T12:25:45.553Z,3.93
2018-03-29T12:28:12.951Z,3.33
2018-03-29T12:30:40.476Z,3.17
2018-03-29T12:33:07.875Z,3.57
2018-03-29T12:35:35.296Z,4.05
2018-03-29T12:38:02.764Z,2.77
2018-03-29T12:40:30.163Z,3.00
2018-03-29T12:42:57.638Z,3.13
2018-03-29T12:45:25.096Z,2.93
2018-03-29T12:47:52.475Z,3.07
2018-03-29T12:50:20.880Z,3.37
2018-03-29T12:52:48.492Z,2.90
2018-03-29T12:55:27.558Z,3.30
2018-03-29T12:58:10.505Z,2.87
2018-03-29T13:00:37.922Z,3.03
2018-03-29T13:03:05.348Z,2.77
2018-03-29T13:05:32.763Z,3.33
2018-03-29T13:08:00.588Z,3.43
2018-03-29T13:10:28.006Z,3.50
2018-03-29T13:12:55.498Z,2.58
2018-03-29T13:15:22.906Z,2.92
2018-03-29T13:17:50.319Z,3.37
2018-03-29T13:20:17.760Z,2.70
2018-03-29T13:22:45.582Z,3.42
2018-03-29T13:25:12.999Z,3.30
2018-03-29T13:27:41.171Z,4.07
2018-03-29T13:30:08.532Z,4.00
2018-03-29T13:32:35.971Z,3.90
2018-03-29T13:35:03.339Z,3.90
2018-03-29T13:37:30.732Z,4.57
2018-03-29T13:39:58.154Z,4.03
2018-03-29T13:42:25.536Z,4.10
2018-03-29T13:44:52.972Z,3.90
2018-03-29T13:47:20.433Z,3.47
2018-03-29T13:49:47.820Z,3.53
2018-03-29T13:52:15.226Z,3.60
2018-03-29T13:54:42.657Z,4.23
2018-03-29T13:57:10.805Z,3.37
2018-03-29T13:59:38.189Z,3.80
2018-03-29T14:02:05.625Z,4.57
2018-03-29T14:04:33.027Z,4.00
2018-03-29T14:07:00.433Z,5.00
2018-03-29T14:09:28.199Z,4.13
2018-03-29T14:11:55.652Z,3.67
2018-03-29T14:14:23.040Z,3.13
2018-03-29T14:16:50.442Z,3.42
2018-03-29T14:19:17.829Z,2.73
2018-03-29T14:21:45.254Z,2.85
2018-03-29T14:24:15.228Z,3.05
2018-03-29T14:26:42.939Z,2.90
2018-03-29T14:29:10.935Z,2.93
2018-03-29T14:31:38.359Z,3.07
2018-03-29T14:34:05.763Z,2.90
2018-03-29T14:36:34.351Z,3.40
2018-03-29T14:39:01.767Z,3.87
2018-03-29T14:41:29.186Z,3.30
2018-03-29T14:43:56.615Z,3.10
2018-03-29T14:46:23.989Z,3.00
2018-03-29T14:48:51.588Z,3.00
2018-03-29T14:51:18.953Z,3.10
2018-03-29T14:53:46.353Z,3.42
2018-03-29T14:56:13.729Z,2.73
2018-03-29T14:58:41.128Z,3.43
2018-03-29T15:01:08.533Z,3.23
2018-03-29T15:03:35.977Z,3.10
2018-03-29T15:06:03.359Z,3.50
2018-03-29T15:08:30.800Z,3.00
2018-03-29T15:10:58.186Z,2.67
2018-03-29T15:13:25.580Z,2.58
2018-03-29T15:15:52.993Z,3.07
2018-03-29T15:18:20.392Z,2.83
2018-03-29T15:20:48.901Z,2.78
2018-03-29T15:23:16.304Z,3.42
2018-03-29T15:25:43.686Z,3.13
2018-03-29T15:28:11.161Z,4.10
2018-03-29T15:30:38.549Z,3.00
2018-03-29T15:33:05.955Z,2.97
2018-03-29T15:35:33.360Z,4.07
2018-03-29T15:38:00.758Z,4.60
2018-03-29T15:40:28.146Z,3.57
2018-03-29T15:42:55.552Z,3.50
2018-03-29T15:45:23.239Z,3.00
2018-03-29T15:47:50.645Z,2.87
2018-03-29T15:50:18.046Z,2.40
2018-03-29T15:52:46.123Z,2.57
2018-03-29T15:55:13.554Z,3.00
2018-03-29T15:57:41.393Z,2.80
2018-03-29T16:00:08.801Z,2.77
2018-03-29T16:02:36.208Z,3.00
2018-03-29T16:05:03.616Z,2.73
2018-03-29T16:07:31.063Z,2.17
2018-03-29T16:09:58.523Z,2.65
2018-03-29T16:12:25.989Z,2.40
2018-03-29T16:14:53.318Z,2.80
2018-03-29T16:17:20.776Z,2.45
2018-03-29T16:19:48.176Z,2.80
2018-03-29T16:22:15.964Z,2.80
2018-03-29T16:24:43.360Z,2.70
2018-03-29T16:27:11.511Z,2.40
2018-03-29T16:29:38.913Z,2.73
2018-03-29T16:32:06.340Z,2.90
2018-03-29T16:34:33.706Z,3.10
2018-03-29T16:37:01.099Z,2.20
2018-03-29T16:39:28.622Z,2.70
2018-03-29T16:41:56.090Z,3.10
2018-03-29T16:44:23.485Z,3.12
2018-03-29T16:46:51.944Z,2.50
2018-03-29T16:49:19.375Z,2.80
2018-03-29T16:51:46.823Z,2.90
2018-03-29T16:54:14.225Z,2.83
2018-03-29T16:56:41.638Z,2.90
2018-03-29T16:59:09.050Z,3.17
2018-03-29T17:01:36.700Z,2.73
2018-03-29T17:04:04.094Z,3.30
2018-03-29T17:06:32.448Z,3.33
2018-03-29T17:08:59.858Z,3.90
2018-03-29T17:11:27.398Z,4.47
2018-03-29T17:13:54.913Z,4.70
2018-03-29T17:16:22.382Z,4.82
2018-03-29T17:18:49.774Z,4.90
2018-03-29T17:21:17.187Z,4.00
2018-03-29T17:23:44.705Z,4.10
2018-03-29T17:26:12.026Z,2.87
2018-03-29T17:28:39.427Z,4.40
2018-03-29T17:31:06.925Z,2.63
2018-03-29T17:33:34.354Z,2.67
2018-03-29T17:36:01.836Z,2.80
2018-03-29T17:38:29.231Z,2.83
2018-03-29T17:40:56.665Z,2.55
2018-03-29T17:43:24.066Z,2.87
2018-03-29T17:45:51.479Z,3.73
2018-03-29T17:48:19.109Z,3.30
2018-03-29T17:50:46.543Z,3.55
2018-03-29T17:53:13.925Z,3.70
2018-03-29T17:55:41.905Z,2.90
2018-03-29T17:58:09.337Z,3.80
2018-03-29T18:00:36.794Z,3.30
2018-03-29T18:03:04.228Z,3.60
2018-03-29T18:05:31.641Z,3.23
2018-03-29T18:07:59.028Z,2.97
2018-03-29T18:10:26.437Z,3.10
2018-03-29T18:12:53.831Z,3.37
2018-03-29T18:15:21.219Z,3.37
2018-03-29T18:17:48.611Z,3.13
2018-03-29T18:20:16.016Z,4.00
2018-03-29T18:22:46.102Z,3.50
2018-03-29T18:25:13.485Z,4.07
2018-03-29T18:27:41.081Z,3.70
2018-03-29T18:30:08.510Z,3.80
2018-03-29T18:32:35.908Z,3.78
2018-03-29T18:35:03.464Z,4.03
2018-03-29T18:37:30.857Z,3.80
2018-03-29T18:39:59.030Z,4.03
2018-03-29T18:42:26.401Z,4.23
2018-03-29T18:44:53.811Z,5.40
2018-03-29T18:47:21.329Z,5.87
2018-03-29T18:49:48.773Z,4.30
2018-03-29T18:52:16.182Z,4.50
2018-03-29T18:54:43.615Z,4.40
2018-03-29T18:57:11.002Z,4.20
2018-03-29T18:59:38.393Z,4.17
2018-03-29T19:02:05.792Z,4.87
2018-03-29T19:04:33.191Z,4.40
2018-03-29T19:07:00.703Z,5.20
2018-03-29T19:09:28.104Z,4.87
2018-03-29T19:11:55.498Z,6.33
2018-03-29T19:14:22.930Z,5.70
2018-03-29T19:16:51.417Z,6.15
2018-03-29T19:19:18.822Z,5.50
2018-03-29T19:21:46.270Z,5.27
2018-03-29T19:24:13.663Z,4.87
2018-03-29T19:26:41.107Z,5.60
2018-03-29T19:29:08.569Z,7.83
2018-03-29T19:31:36.134Z,5.87
2018-03-29T19:34:03.632Z,5.50
2018-03-29T19:36:31.069Z,4.97
2018-03-29T19:38:58.720Z,4.70
2018-03-29T19:41:26.117Z,5.30
2018-03-29T19:43:53.513Z,9.65
2018-03-29T19:46:20.918Z,8.10
2018-03-29T19:48:48.435Z,5.43
2018-03-29T19:51:15.853Z,6.33
2018-03-29T19:53:43.246Z,5.33
2018-03-29T19:56:10.644Z,5.37
2018-03-29T19:58:38.083Z,4.10
2018-03-29T20:01:05.434Z,5.53
2018-03-29T20:03:32.829Z,5.30
2018-03-29T20:06:00.383Z,3.67
2018-03-29T20:08:27.849Z,5.65
2018-03-29T20:10:55.418Z,4.53
2018-03-29T20:13:22.998Z,4.10
2018-03-29T20:15:51.378Z,4.30
2018-03-29T20:18:18.859Z,4.50
2018-03-29T20:20:46.610Z,4.27
2018-03-29T20:23:14.318Z,4.43
2018-03-29T20:25:42.632Z,4.80
2018-03-29T20:28:10.013Z,5.20
2018-03-29T20:30:37.651Z,5.00
2018-03-29T20:33:05.030Z,5.00
2018-03-29T20:35:32.576Z,6.00
2018-03-29T20:38:00.103Z,4.87
2018-03-29T20:40:27.600Z,4.32
2018-03-29T20:42:55.033Z,4.47
2018-03-29T20:45:22.635Z,4.50
2018-03-29T20:47:50.068Z,4.97
2018-03-29T20:50:17.674Z,5.00
2018-03-29T20:52:45.430Z,4.73
2018-03-29T20:55:12.963Z,4.10
2018-03-29T20:57:40.389Z,3.70
2018-03-29T21:00:07.903Z,3.90
2018-03-29T21:02:35.514Z,4.10
2018-03-29T21:05:02.988Z,3.90
2018-03-29T21:07:30.512Z,3.90
2018-03-29T21:09:57.949Z,4.07
2018-03-29T21:12:25.498Z,3.40
2018-03-29T21:14:52.909Z,3.20
2018-03-29T21:17:20.507Z,3.97
2018-03-29T21:19:47.994Z,3.70
2018-03-29T21:22:15.405Z,3.73
2018-03-29T21:24:44.901Z,4.20
2018-03-29T21:27:13.149Z,4.50
2018-03-29T21:29:40.877Z,4.53
2018-03-29T21:32:08.361Z,4.57
2018-03-29T21:34:35.794Z,3.03
2018-03-29T21:37:03.245Z,3.60
2018-03-29T21:39:30.692Z,4.20
2018-03-29T21:41:58.432Z,3.78
2018-03-29T21:44:25.900Z,3.73
2018-03-29T21:46:53.475Z,3.43
2018-03-29T21:49:21.087Z,4.03
2018-03-29T21:51:48.645Z,4.45
2018-03-29T21:54:16.044Z,5.00
2018-03-29T21:56:43.450Z,4.70
2018-03-29T21:59:11.004Z,5.10
2018-03-29T22:01:38.669Z,4.23
2018-03-29T22:04:06.126Z,3.97
2018-03-29T22:06:33.579Z,3.93
2018-03-29T22:09:01.093Z,3.43
2018-03-29T22:11:28.456Z,3.85
2018-03-29T22:13:56.089Z,4.53
2018-03-29T22:16:23.780Z,4.73
2018-03-29T22:18:51.475Z,4.55
2018-03-29T22:21:19.239Z,4.40
2018-03-29T22:23:46.854Z,4.37
2018-03-29T22:26:14.771Z,5.67
2018-03-29T22:28:43.263Z,4.20
2018-03-29T22:31:10.963Z,4.80
2018-03-29T22:33:38.653Z,4.73
2018-03-29T22:36:07.459Z,4.43
2018-03-29T22:38:35.122Z,4.73
2018-03-29T22:41:02.806Z,4.70
2018-03-29T22:43:30.961Z,5.03
2018-03-29T22:45:59.545Z,5.30
2018-03-29T22:48:27.252Z,4.20
2018-03-29T22:50:54.955Z,4.63
2018-03-29T22:53:22.648Z,4.90
2018-03-29T22:55:50.328Z,4.60
2018-03-29T22:58:17.961Z,5.30
2018-03-29T23:00:45.590Z,4.43
2018-03-29T23:03:14.073Z,5.10
2018-03-29T23:05:41.730Z,6.50
2018-03-29T23:08:09.459Z,3.67
2018-03-29T23:10:37.117Z,4.10
2018-03-29T23:13:05.697Z,3.80
2018-03-29T23:15:34.253Z,3.70
2018-03-29T23:18:01.942Z,4.27
2018-03-29T23:20:29.709Z,3.97
2018-03-29T23:22:57.370Z,4.10
2018-03-29T23:25:24.971Z,4.30
2018-03-29T23:27:52.561Z,4.50
2018-03-29T23:30:20.221Z,4.60
2018-03-29T23:32:47.907Z,4.33
2018-03-29T23:35:16.537Z,4.30
2018-03-29T23:37:44.165Z,4.77
2018-03-29T23:40:12.774Z,4.30
2018-03-29T23:42:40.762Z,4.00
2018-03-29T23:45:09.851Z,3.50
2018-03-29T23:47:37.444Z,4.20
2018-03-29T23:50:05.466Z,4.47
2018-03-29T23:52:33.125Z,4.10
2018-03-29T23:55:00.878Z,4.70
2018-03-29T23:57:29.164Z,3.90
2018-03-29T23:59:56.838Z,4.00
